Souda — SVBH5 — position and weather

sailwx.info

Track history (hours):
 
Tides and Currents Weather Stations Pressure Air Temp Water Temp Dewpoint Dewpoint Depression Visibility Wind Speed Wind Dir Waves Ship Positions

Souda

Last reported at 2015-Feb-26 14:33 UTC. Time now 2015-Feb-28 12:33 UTC.
Position N 37°28' E 023°47'.

Length 88 m; draft 6.5 m.

Type: Tanker. MMSI: 241109000.

Date/timePositionNaut miles runAvg speedWind from/ knotsBaromVisibWave heightAir tempDewpointWater temp
2015-Feb-26 14:33N 37°28' E 023°47'8 8.2
2015-Feb-26 13:33N 37°35' E 023°43'9 8.5
2015-Feb-26 12:34N 37°44' E 023°40'8 7.7
2015-Feb-26 11:33N 37°49' E 023°34'8 8.3
2015-Feb-26 10:33N 37°51' E 023°23'9 8.2
2015-Feb-26 09:26N 37°53' E 023°12'6 0.6
2015-Feb-25 23:33N 37°55' E 023°05'0 0.0
2015-Feb-25 21:32N 37°55' E 023°05'0 0.0
2015-Feb-25 18:26N 37°55' E 023°05'0 0.0
2015-Feb-25 17:32N 37°55' E 023°05'1 1.0
2015-Feb-25 16:16N 37°55' E 023°07'0 0.0
2015-Feb-25 15:14N 37°55' E 023°07'0 0.3
2015-Feb-25 14:27N 37°55' E 023°07'7 7.5
2015-Feb-25 13:33N 37°53' E 023°15'8 8.3
2015-Feb-25 12:34N 37°51' E 023°25'8 7.6
2015-Feb-25 11:34N 37°50' E 023°35'7 7.1
2015-Feb-25 10:34N 37°46' E 023°42'8 8.4
2015-Feb-25 09:34N 37°39' E 023°49'9 7.9
2015-Feb-25 08:28N 37°35' E 023°58'17 8.9
2015-Feb-25 06:32N 37°43' E 024°17'40 7.7
2015-Feb-25 01:17N 38°22' E 024°32'  
2015-Feb-21 07:25N 37°38' E 023°46'6 7.4
2015-Feb-21 06:33N 37°43' E 023°40'8 7.8
2015-Feb-21 05:33N 37°49' E 023°35'8 8.4
2015-Feb-21 04:33N 37°50' E 023°24'10 8.4
2015-Feb-21 03:21N 37°53' E 023°11'4 0.2
2015-Feb-20 05:23N 37°55' E 023°07'0 0.0
2015-Feb-20 03:11N 37°55' E 023°07'0 0.0
2015-Feb-20 01:11N 37°55' E 023°07'1 0.1
2015-Feb-19 18:33N 37°54' E 023°08'9 8.6
2015-Feb-19 17:33N 37°52' E 023°18'9 8.8
2015-Feb-19 16:33N 37°50' E 023°29'8 7.7
2015-Feb-19 15:33N 37°55' E 023°36'2 1.8
2015-Feb-19 14:16N 37°57' E 023°35'0 0.0
2015-Feb-19 13:34N 37°57' E 023°35'0 0.0
2015-Feb-19 12:31N 37°57' E 023°35'0 0.0
2015-Feb-19 11:34N 37°57' E 023°35'0 0.0
2015-Feb-19 10:30N 37°57' E 023°35'0 0.0
2015-Feb-19 09:25N 37°57' E 023°35'0 0.0
2015-Feb-19 08:34N 37°57' E 023°35'0 0.0
2015-Feb-19 07:33N 37°57' E 023°35'0 0.0
2015-Feb-19 06:34N 37°57' E 023°35'0 0.0
2015-Feb-19 05:30N 37°57' E 023°35'0 0.0
2015-Feb-19 04:34N 37°57' E 023°35'0 0.0
2015-Feb-19 03:33N 37°57' E 023°35'0 0.0
2015-Feb-19 02:33N 37°57' E 023°35'0 0.0
2015-Feb-19 01:33N 37°57' E 023°35'0 0.0
2015-Feb-19 00:33N 37°57' E 023°35'0 0.0
2015-Feb-18 23:33N 37°57' E 023°35'0 0.0
2015-Feb-18 22:33N 37°57' E 023°35'0 0.0
2015-Feb-18 21:33N 37°57' E 023°35'0 0.0
2015-Feb-18 20:33N 37°57' E 023°35'0 0.0
2015-Feb-18 19:33N 37°57' E 023°35'0 0.0
2015-Feb-18 18:33N 37°57' E 023°35'2 2.4
2015-Feb-18 17:33N 37°55' E 023°34'0 0.4
2015-Feb-18 16:32N 37°55' E 023°34'4 3.6
2015-Feb-18 15:33N 37°51' E 023°34'7 6.7
2015-Feb-18 14:33N 37°50' E 023°25'16 0.6
2015-Feb-17 12:17N 37°55' E 023°06'1 0.2
2015-Feb-17 08:12N 37°54' E 023°07'7 9.1
2015-Feb-17 07:26N 37°52' E 023°15'8 9.0
2015-Feb-17 06:33N 37°51' E 023°25'9 9.1
2015-Feb-17 05:33N 37°50' E 023°36'8 7.7
2015-Feb-17 04:33N 37°45' E 023°43'8 8.1
2015-Feb-17 03:33N 37°37' E 023°46'  
Track history (hours):
 
Tides and Currents Weather Stations Pressure Air Temp Water Temp Dewpoint Dewpoint Depression Visibility Wind Speed Wind Dir Waves Ship Positions

Souda

Last reported at 2015-Feb-26 14:33 UTC. Time now 2015-Feb-28 12:33 UTC.
Position N 37°28' E 023°47'.

Length 88 m; draft 6.5 m.

Type: Tanker. MMSI: 241109000.

Date/timePositionNaut miles runAvg speedWind from/ knotsBaromVisibWave heightAir tempDewpointWater temp
2015-Feb-26 14:33N 37°28' E 023°47'8 8.2
2015-Feb-26 13:33N 37°35' E 023°43'9 8.5
2015-Feb-26 12:34N 37°44' E 023°40'8 7.7
2015-Feb-26 11:33N 37°49' E 023°34'8 8.3
2015-Feb-26 10:33N 37°51' E 023°23'9 8.2
2015-Feb-26 09:26N 37°53' E 023°12'6 0.6
2015-Feb-25 23:33N 37°55' E 023°05'0 0.0
2015-Feb-25 21:32N 37°55' E 023°05'0 0.0
2015-Feb-25 18:26N 37°55' E 023°05'0 0.0
2015-Feb-25 17:32N 37°55' E 023°05'1 1.0
2015-Feb-25 16:16N 37°55' E 023°07'0 0.0
2015-Feb-25 15:14N 37°55' E 023°07'0 0.3
2015-Feb-25 14:27N 37°55' E 023°07'7 7.5
2015-Feb-25 13:33N 37°53' E 023°15'8 8.3
2015-Feb-25 12:34N 37°51' E 023°25'8 7.6
2015-Feb-25 11:34N 37°50' E 023°35'7 7.1
2015-Feb-25 10:34N 37°46' E 023°42'8 8.4
2015-Feb-25 09:34N 37°39' E 023°49'9 7.9
2015-Feb-25 08:28N 37°35' E 023°58'17 8.9
2015-Feb-25 06:32N 37°43' E 024°17'40 7.7
2015-Feb-25 01:17N 38°22' E 024°32'  
2015-Feb-21 07:25N 37°38' E 023°46'6 7.4
2015-Feb-21 06:33N 37°43' E 023°40'8 7.8
2015-Feb-21 05:33N 37°49' E 023°35'8 8.4
2015-Feb-21 04:33N 37°50' E 023°24'10 8.4
2015-Feb-21 03:21N 37°53' E 023°11'4 0.2
2015-Feb-20 05:23N 37°55' E 023°07'0 0.0
2015-Feb-20 03:11N 37°55' E 023°07'0 0.0
2015-Feb-20 01:11N 37°55' E 023°07'1 0.1
2015-Feb-19 18:33N 37°54' E 023°08'9 8.6
2015-Feb-19 17:33N 37°52' E 023°18'9 8.8
2015-Feb-19 16:33N 37°50' E 023°29'8 7.7
2015-Feb-19 15:33N 37°55' E 023°36'2 1.8
2015-Feb-19 14:16N 37°57' E 023°35'0 0.0
2015-Feb-19 13:34N 37°57' E 023°35'0 0.0
2015-Feb-19 12:31N 37°57' E 023°35'0 0.0
2015-Feb-19 11:34N 37°57' E 023°35'0 0.0
2015-Feb-19 10:30N 37°57' E 023°35'0 0.0
2015-Feb-19 09:25N 37°57' E 023°35'0 0.0
2015-Feb-19 08:34N 37°57' E 023°35'0 0.0
2015-Feb-19 07:33N 37°57' E 023°35'0 0.0
2015-Feb-19 06:34N 37°57' E 023°35'0 0.0
2015-Feb-19 05:30N 37°57' E 023°35'0 0.0
2015-Feb-19 04:34N 37°57' E 023°35'0 0.0
2015-Feb-19 03:33N 37°57' E 023°35'0 0.0
2015-Feb-19 02:33N 37°57' E 023°35'0 0.0
2015-Feb-19 01:33N 37°57' E 023°35'0 0.0
2015-Feb-19 00:33N 37°57' E 023°35'0 0.0
2015-Feb-18 23:33N 37°57' E 023°35'0 0.0
2015-Feb-18 22:33N 37°57' E 023°35'0 0.0
2015-Feb-18 21:33N 37°57' E 023°35'0 0.0
2015-Feb-18 20:33N 37°57' E 023°35'0 0.0
2015-Feb-18 19:33N 37°57' E 023°35'0 0.0
2015-Feb-18 18:33N 37°57' E 023°35'2 2.4
2015-Feb-18 17:33N 37°55' E 023°34'0 0.4
2015-Feb-18 16:32N 37°55' E 023°34'4 3.6
2015-Feb-18 15:33N 37°51' E 023°34'7 6.7
2015-Feb-18 14:33N 37°50' E 023°25'16 0.6
2015-Feb-17 12:17N 37°55' E 023°06'1 0.2
2015-Feb-17 08:12N 37°54' E 023°07'7 9.1
2015-Feb-17 07:26N 37°52' E 023°15'8 9.0
2015-Feb-17 06:33N 37°51' E 023°25'9 9.1
2015-Feb-17 05:33N 37°50' E 023°36'8 7.7
2015-Feb-17 04:33N 37°45' E 023°43'8 8.1
2015-Feb-17 03:33N 37°37' E 023°46'  

Dump ship's entire track history